Blaine Lake, Canada
Current Conditions -  °F | °C
As of 12:00 PM on Thursday 30 Oct 2014 (Local Time) from CYXE Reporting Station
Overcast Overcast  
Wind Chill: 20°   Ceiling: 1500
Heat Index: 30°   Visibility: 15mi
Dew Point: 23°   Wind: 14mph
Humidity: 75%   Direction: 140°SE
Pressure: 30.5"   Gusts: NA
Location:  52.83°N, 106.88°W
Report Text: CYXE 301800Z 14012KT 15SM OVC015 M01/M05 A3050 RMK SC8 SLP358
Loading
Personal Weather Stations






























Interactive Weather Map
Tropical Storm Tracking
New forecast layout! Learn more

10-Day Weather Forecast

Advertisements
Track Severe Weather on mobile